createdAt,value
2023-04-02T00:00:10.675Z,6.00
2023-04-02T00:03:01.662Z,5.93
2023-04-02T00:05:31.724Z,5.94
2023-04-02T00:08:10.483Z,5.90
2023-04-02T00:10:48.300Z,5.80
2023-04-02T00:13:14.898Z,5.77
2023-04-02T00:15:44.382Z,5.77
2023-04-02T00:18:18.192Z,5.78
2023-04-02T00:21:00.710Z,5.82
2023-04-02T00:23:28.548Z,5.84
2023-04-02T00:25:55.338Z,5.87
2023-04-02T00:28:23.753Z,5.89
2023-04-02T00:30:55.855Z,5.84
2023-04-02T00:33:24.157Z,5.93
2023-04-02T00:35:51.593Z,5.90
2023-04-02T00:38:44.269Z,5.93
2023-04-02T00:41:16.640Z,5.89
2023-04-02T00:43:44.879Z,5.78
2023-04-02T00:46:15.513Z,5.90
2023-04-02T00:48:59.741Z,5.88
2023-04-02T00:51:31.870Z,5.83
2023-04-02T00:54:01.216Z,5.87
2023-04-02T00:56:45.950Z,5.88
2023-04-02T00:59:36.954Z,5.78
2023-04-02T01:02:13.719Z,5.83
2023-04-02T01:04:41.545Z,5.84
2023-04-02T01:07:10.704Z,5.83
2023-04-02T01:09:56.377Z,5.81
2023-04-02T01:12:45.176Z,5.86
2023-04-02T01:15:26.469Z,5.82
2023-04-02T01:18:18.372Z,5.76
2023-04-02T01:20:48.128Z,5.80
2023-04-02T01:23:18.493Z,5.78
2023-04-02T01:26:17.215Z,5.82
2023-04-02T01:29:16.103Z,5.71
2023-04-02T01:31:44.882Z,5.72
2023-04-02T01:34:15.017Z,5.73
2023-04-02T01:37:07.165Z,5.79
2023-04-02T01:39:56.776Z,5.70
2023-04-02T01:42:27.155Z,5.74
2023-04-02T01:45:00.849Z,5.76
2023-04-02T01:47:29.121Z,5.74
2023-04-02T01:50:23.114Z,5.76
2023-04-02T01:52:56.243Z,5.70
2023-04-02T01:55:38.345Z,5.70
2023-04-02T01:58:05.863Z,5.64
2023-04-02T02:00:36.279Z,5.62
2023-04-02T02:03:04.200Z,5.56
2023-04-02T02:05:31.121Z,5.56
2023-04-02T02:07:58.549Z,5.58
2023-04-02T02:10:34.072Z,5.71
2023-04-02T02:13:01.123Z,5.70
2023-04-02T02:15:28.079Z,5.66
2023-04-02T02:17:59.787Z,5.58
2023-04-02T02:20:28.507Z,5.52
2023-04-02T02:22:56.590Z,5.53
2023-04-02T02:25:27.336Z,5.57
2023-04-02T02:28:03.274Z,5.58
2023-04-02T02:30:31.088Z,5.56
2023-04-02T02:33:18.088Z,5.58
2023-04-02T02:35:51.009Z,5.64
2023-04-02T02:38:29.877Z,5.64
2023-04-02T02:41:01.119Z,5.68
2023-04-02T02:43:28.358Z,5.68
2023-04-02T02:45:56.203Z,5.66
2023-04-02T02:48:25.499Z,5.61
2023-04-02T02:50:53.397Z,5.65
2023-04-02T02:53:22.903Z,5.63
2023-04-02T02:55:53.286Z,5.56
2023-04-02T02:58:26.564Z,5.54
2023-04-02T03:00:54.234Z,5.43
2023-04-02T03:03:24.161Z,5.43
2023-04-02T03:05:57.765Z,5.36
2023-04-02T03:08:32.629Z,5.35
2023-04-02T03:11:06.276Z,5.33
2023-04-02T03:13:35.750Z,5.35
2023-04-02T03:16:22.864Z,5.42
2023-04-02T03:18:59.402Z,5.43
2023-04-02T03:21:40.216Z,5.44
2023-04-02T03:24:16.016Z,5.42
2023-04-02T03:26:49.132Z,5.57
2023-04-02T03:29:19.991Z,5.59
2023-04-02T03:32:00.063Z,5.59
2023-04-02T03:34:37.651Z,5.51
2023-04-02T03:37:26.427Z,5.47
2023-04-02T03:39:58.592Z,5.52
2023-04-02T03:42:27.482Z,5.55
2023-04-02T03:44:58.622Z,5.45
2023-04-02T03:47:31.280Z,5.45
2023-04-02T03:50:23.109Z,5.51
2023-04-02T03:52:50.129Z,5.53
2023-04-02T03:55:22.902Z,5.51
2023-04-02T03:58:16.205Z,5.52
2023-04-02T04:00:49.653Z,5.50
2023-04-02T04:03:27.586Z,5.56
2023-04-02T04:06:01.537Z,5.66
2023-04-02T04:08:43.799Z,5.68
2023-04-02T04:11:15.412Z,5.66
2023-04-02T04:14:19.996Z,5.64
2023-04-02T04:17:05.737Z,5.56
2023-04-02T04:19:49.711Z,5.64
2023-04-02T04:22:30.335Z,5.63
2023-04-02T04:25:06.407Z,5.58
2023-04-02T04:28:09.170Z,5.58
2023-04-02T04:31:18.099Z,5.59
2023-04-02T04:33:50.524Z,5.66
2023-04-02T04:36:30.187Z,5.66
2023-04-02T04:39:06.144Z,5.67
2023-04-02T04:41:36.449Z,5.69
2023-04-02T04:44:03.027Z,5.74
2023-04-02T04:46:41.910Z,5.67
2023-04-02T04:49:18.496Z,5.70
2023-04-02T04:52:08.333Z,5.67
2023-04-02T04:54:37.960Z,5.64
2023-04-02T04:57:06.126Z,5.56
2023-04-02T04:59:39.768Z,5.57
2023-04-02T05:02:17.556Z,5.60
2023-04-02T05:04:49.321Z,5.59
2023-04-02T05:07:28.955Z,5.61
2023-04-02T05:10:03.979Z,5.66
2023-04-02T05:12:44.303Z,5.60
2023-04-02T05:15:14.806Z,5.55
2023-04-02T05:18:08.228Z,5.61
2023-04-02T05:20:40.766Z,5.60
2023-04-02T05:23:13.229Z,5.65
2023-04-02T05:25:59.922Z,5.55
2023-04-02T05:28:34.364Z,5.60
2023-04-02T05:31:12.319Z,5.59
2023-04-02T05:33:39.842Z,5.63
2023-04-02T05:36:13.089Z,5.62
2023-04-02T05:38:45.489Z,5.62
2023-04-02T05:41:36.825Z,5.62
2023-04-02T05:44:08.112Z,5.69
2023-04-02T05:46:46.200Z,5.75
2023-04-02T05:49:41.714Z,5.80
2023-04-02T05:52:14.028Z,5.92
2023-04-02T05:54:47.822Z,6.00
2023-04-02T05:57:17.632Z,6.03
2023-04-02T05:59:49.266Z,6.07
2023-04-02T06:02:21.958Z,6.14
2023-04-02T06:04:54.628Z,6.17
2023-04-02T06:07:24.197Z,6.19
2023-04-02T06:09:54.530Z,6.22
2023-04-02T06:12:39.620Z,6.27
2023-04-02T06:15:10.162Z,6.32
2023-04-02T06:17:47.569Z,6.39
2023-04-02T06:20:19.329Z,6.50
2023-04-02T06:22:49.521Z,6.70
2023-04-02T06:25:37.008Z,6.91
2023-04-02T06:28:06.412Z,7.42
2023-04-02T06:30:38.732Z,7.42
2023-04-02T06:33:05.766Z,7.39
2023-04-02T06:35:34.939Z,7.44
2023-04-02T06:38:04.604Z,7.62
2023-04-02T06:40:59.123Z,7.61
2023-04-02T06:43:33.695Z,7.65
2023-04-02T06:46:11.473Z,7.87
2023-04-02T06:48:39.614Z,8.16
2023-04-02T06:51:14.635Z,8.50
2023-04-02T06:53:47.190Z,8.50
2023-04-02T06:56:46.360Z,8.39
2023-04-02T06:59:14.383Z,8.35
2023-04-02T07:01:49.119Z,8.74
2023-04-02T07:04:16.771Z,9.19
2023-04-02T07:06:43.737Z,9.20
2023-04-02T07:09:10.540Z,9.69
2023-04-02T07:11:37.269Z,9.34
2023-04-02T07:14:04.037Z,9.54
2023-04-02T07:16:32.769Z,9.60
2023-04-02T07:19:00.035Z,9.31
2023-04-02T07:21:27.668Z,9.15
2023-04-02T07:23:55.083Z,8.99
2023-04-02T07:26:25.532Z,8.89
2023-04-02T07:28:52.465Z,8.86
2023-04-02T07:31:21.905Z,8.89
2023-04-02T07:33:48.730Z,8.77
2023-04-02T07:36:17.501Z,8.66
2023-04-02T07:38:44.572Z,8.66
2023-04-02T07:41:12.143Z,8.71
2023-04-02T07:43:39.648Z,8.84
2023-04-02T07:46:07.708Z,8.96
2023-04-02T07:48:34.529Z,9.01
2023-04-02T07:51:03.360Z,8.95
2023-04-02T07:53:40.224Z,9.11
2023-04-02T07:56:07.361Z,9.23
2023-04-02T07:58:34.456Z,9.31
2023-04-02T08:01:01.890Z,9.27
2023-04-02T08:03:29.668Z,9.01
2023-04-02T08:05:58.715Z,9.15
2023-04-02T08:08:25.997Z,9.09
2023-04-02T08:10:52.766Z,8.96
2023-04-02T08:13:19.680Z,8.79
2023-04-02T08:15:46.502Z,8.68
2023-04-02T08:18:13.225Z,8.47
2023-04-02T08:20:40.071Z,8.72
2023-04-02T08:23:17.235Z,8.66
2023-04-02T08:25:46.777Z,8.61
2023-04-02T08:28:13.782Z,8.60
2023-04-02T08:30:41.358Z,8.50
2023-04-02T08:33:08.098Z,8.61
2023-04-02T08:35:35.230Z,8.65
2023-04-02T08:38:02.180Z,8.78
2023-04-02T08:40:35.671Z,8.93
2023-04-02T08:43:28.985Z,8.98
2023-04-02T08:46:19.605Z,8.97
2023-04-02T08:48:51.263Z,8.95
2023-04-02T08:51:27.088Z,9.06
2023-04-02T08:53:56.939Z,9.42
2023-04-02T08:56:28.189Z,9.78
2023-04-02T08:58:58.246Z,9.51
2023-04-02T09:01:54.642Z,9.23
2023-04-02T09:04:22.860Z,9.31
2023-04-02T09:06:51.600Z,9.58
2023-04-02T09:09:18.766Z,9.35
2023-04-02T09:11:51.900Z,9.49
2023-04-02T09:14:32.084Z,9.59
2023-04-02T09:17:03.411Z,9.82
2023-04-02T09:19:40.521Z,10.23
2023-04-02T09:22:12.158Z,10.41
2023-04-02T09:24:38.772Z,10.70
2023-04-02T09:27:17.580Z,11.04
2023-04-02T09:29:45.982Z,11.23
2023-04-02T09:32:39.554Z,11.24
2023-04-02T09:35:27.242Z,10.80
2023-04-02T09:38:12.766Z,10.84
2023-04-02T09:41:07.617Z,10.99
2023-04-02T09:43:36.951Z,10.54
2023-04-02T09:46:18.410Z,10.57
2023-04-02T09:48:58.295Z,10.50
2023-04-02T09:51:27.142Z,10.44
2023-04-02T09:54:03.095Z,10.30
2023-04-02T09:56:33.865Z,10.49
2023-04-02T09:59:07.818Z,10.23
2023-04-02T10:01:37.423Z,10.11
2023-04-02T10:04:06.204Z,10.16
2023-04-02T10:06:34.160Z,10.07
2023-04-02T10:09:21.695Z,9.90
2023-04-02T10:11:49.026Z,9.94
2023-04-02T10:14:22.305Z,10.21
2023-04-02T10:16:52.666Z,10.58
2023-04-02T10:19:28.078Z,10.64
2023-04-02T10:21:55.924Z,10.46
2023-04-02T10:24:22.985Z,10.46
2023-04-02T10:27:04.454Z,10.66
2023-04-02T10:30:02.284Z,10.75
2023-04-02T10:32:42.642Z,10.85
2023-04-02T10:35:09.353Z,10.60
2023-04-02T10:37:48.347Z,10.97
2023-04-02T10:40:37.076Z,10.59
2023-04-02T10:43:34.556Z,10.69
2023-04-02T10:46:10.972Z,11.06
2023-04-02T10:48:54.683Z,10.87
2023-04-02T10:51:38.352Z,10.45
2023-04-02T10:54:14.157Z,10.27
2023-04-02T10:56:50.653Z,9.92
2023-04-02T10:59:28.110Z,9.94
2023-04-02T11:01:57.808Z,10.00
2023-04-02T11:04:27.690Z,9.72
2023-04-02T11:07:11.125Z,9.86
2023-04-02T11:09:43.177Z,10.20
2023-04-02T11:12:21.097Z,10.11
2023-04-02T11:14:48.425Z,10.29
2023-04-02T11:17:16.590Z,10.25
2023-04-02T11:19:44.375Z,10.36
2023-04-02T11:22:20.626Z,9.87
2023-04-02T11:24:49.851Z,10.32
2023-04-02T11:27:34.617Z,10.83
2023-04-02T11:30:23.200Z,10.67
2023-04-02T11:32:50.370Z,10.68
2023-04-02T11:35:32.347Z,10.57
2023-04-02T11:38:04.416Z,10.44
2023-04-02T11:40:56.332Z,10.54
2023-04-02T11:43:35.662Z,10.29
2023-04-02T11:46:20.796Z,10.34
2023-04-02T11:48:47.793Z,10.14
2023-04-02T11:51:21.243Z,10.10
2023-04-02T11:53:53.105Z,10.11
2023-04-02T11:56:37.189Z,10.30
2023-04-02T11:59:24.513Z,10.35
2023-04-02T12:02:08.266Z,10.18
2023-04-02T12:04:38.056Z,10.27
2023-04-02T12:07:11.045Z,10.31
2023-04-02T12:09:43.917Z,10.15
2023-04-02T12:12:39.413Z,10.19
2023-04-02T12:15:24.889Z,10.00
2023-04-02T12:17:51.704Z,10.25
2023-04-02T12:20:24.315Z,10.30
2023-04-02T12:22:53.625Z,10.32
2023-04-02T12:25:31.521Z,10.34
2023-04-02T12:28:07.756Z,10.57
2023-04-02T12:30:34.725Z,10.32
2023-04-02T12:33:19.902Z,10.24
2023-04-02T12:35:47.773Z,10.58
2023-04-02T12:38:25.100Z,10.53
2023-04-02T12:40:56.228Z,10.63
2023-04-02T12:43:30.954Z,10.75
2023-04-02T12:46:08.586Z,10.79
2023-04-02T12:48:36.456Z,10.66
2023-04-02T12:51:03.947Z,10.49
2023-04-02T12:53:35.930Z,10.64
2023-04-02T12:56:03.453Z,10.49
2023-04-02T12:58:36.944Z,10.47
2023-04-02T13:01:31.686Z,10.42
2023-04-02T13:04:12.461Z,10.29
2023-04-02T13:06:40.386Z,10.45
2023-04-02T13:09:29.247Z,10.29
2023-04-02T13:11:56.128Z,10.19
2023-04-02T13:14:24.643Z,10.08
2023-04-02T13:16:51.560Z,10.05
2023-04-02T13:19:18.326Z,10.03
2023-04-02T13:21:46.096Z,10.08
2023-04-02T13:24:20.701Z,10.11
2023-04-02T13:26:49.850Z,10.10
2023-04-02T13:29:29.559Z,10.04
2023-04-02T13:32:01.412Z,10.03
2023-04-02T13:34:28.988Z,10.06
2023-04-02T13:36:57.301Z,10.11
2023-04-02T13:39:24.764Z,10.35
2023-04-02T13:41:53.232Z,10.54
2023-04-02T13:44:22.091Z,10.49
2023-04-02T13:46:48.930Z,10.34
2023-04-02T13:49:15.818Z,10.22
2023-04-02T13:51:58.955Z,9.99
2023-04-02T13:54:37.445Z,9.84
2023-04-02T13:57:04.202Z,9.78
2023-04-02T13:59:31.158Z,9.92
2023-04-02T14:02:01.988Z,9.96
2023-04-02T14:04:31.803Z,9.69
2023-04-02T14:07:10.464Z,10.10
2023-04-02T14:10:01.965Z,10.06
2023-04-02T14:12:46.293Z,10.10
2023-04-02T14:15:38.479Z,10.11
2023-04-02T14:18:36.753Z,10.11
2023-04-02T14:21:29.338Z,10.04
2023-04-02T14:24:29.399Z,9.88
2023-04-02T14:27:08.406Z,9.99
2023-04-02T14:30:04.883Z,9.75
2023-04-02T14:32:53.125Z,9.87
2023-04-02T14:35:29.573Z,9.60
2023-04-02T14:38:27.420Z,9.52
2023-04-02T14:41:05.722Z,9.66
2023-04-02T14:43:54.982Z,9.56
2023-04-02T14:46:26.042Z,9.54
2023-04-02T14:49:11.600Z,9.33
2023-04-02T14:52:04.534Z,9.27
2023-04-02T14:54:52.281Z,9.10
2023-04-02T14:57:21.639Z,9.21
2023-04-02T15:00:01.530Z,8.96
2023-04-02T15:02:42.808Z,8.97
2023-04-02T15:05:19.205Z,8.54
2023-04-02T15:07:52.614Z,8.49
2023-04-02T15:10:25.499Z,8.60
2023-04-02T15:12:54.034Z,8.57
2023-04-02T15:15:49.023Z,8.52
2023-04-02T15:18:18.034Z,8.72
2023-04-02T15:20:50.446Z,8.63
2023-04-02T15:23:31.849Z,8.55
2023-04-02T15:26:12.002Z,8.51
2023-04-02T15:28:50.805Z,8.58
2023-04-02T15:31:19.609Z,8.50
2023-04-02T15:34:11.537Z,8.41
2023-04-02T15:36:47.376Z,8.22
2023-04-02T15:39:18.082Z,8.23
2023-04-02T15:42:11.093Z,8.30
2023-04-02T15:44:44.858Z,8.22
2023-04-02T15:47:59.194Z,8.24
2023-04-02T15:51:04.843Z,8.10
2023-04-02T15:53:44.823Z,8.04
2023-04-02T15:56:25.918Z,7.83
2023-04-02T15:59:17.974Z,7.97
2023-04-02T16:02:18.078Z,7.88
2023-04-02T16:04:50.584Z,7.80
2023-04-02T16:07:35.740Z,7.75
2023-04-02T16:10:40.154Z,7.72
2023-04-02T16:13:29.318Z,7.78
2023-04-02T16:16:04.011Z,7.80
2023-04-02T16:18:38.830Z,7.88
2023-04-02T16:21:06.830Z,7.94
2023-04-02T16:23:38.651Z,7.89
2023-04-02T16:26:29.852Z,7.76
2023-04-02T16:29:13.138Z,7.79
2023-04-02T16:32:01.270Z,7.72
2023-04-02T16:34:34.562Z,7.71
2023-04-02T16:37:26.468Z,7.73
2023-04-02T16:40:11.326Z,7.77
2023-04-02T16:43:00.672Z,7.83
2023-04-02T16:45:36.560Z,7.62
2023-04-02T16:48:23.658Z,7.74
2023-04-02T16:50:59.360Z,7.89
2023-04-02T16:54:01.977Z,7.74
2023-04-02T16:56:33.860Z,7.76
2023-04-02T16:59:38.081Z,7.64
2023-04-02T17:02:37.041Z,7.72
2023-04-02T17:05:24.382Z,7.70
2023-04-02T17:08:01.981Z,7.75
2023-04-02T17:10:38.303Z,7.65
2023-04-02T17:13:27.137Z,7.65
2023-04-02T17:16:06.073Z,7.61
2023-04-02T17:18:33.816Z,7.47
2023-04-02T17:21:06.536Z,7.47
2023-04-02T17:23:55.291Z,7.48
2023-04-02T17:26:24.855Z,7.37
2023-04-02T17:28:52.955Z,7.28
2023-04-02T17:31:23.399Z,7.34
2023-04-02T17:33:50.769Z,7.31
2023-04-02T17:36:17.448Z,7.28
2023-04-02T17:39:03.460Z,7.09
2023-04-02T17:41:32.839Z,7.14
2023-04-02T17:44:10.724Z,7.06
2023-04-02T17:46:55.071Z,7.03
2023-04-02T17:49:47.262Z,6.97
2023-04-02T17:52:36.189Z,6.93
2023-04-02T17:55:06.844Z,6.95
2023-04-02T17:57:52.390Z,6.95
2023-04-02T18:00:50.555Z,7.07
2023-04-02T18:03:31.745Z,7.00
2023-04-02T18:06:14.771Z,7.04
2023-04-02T18:08:53.608Z,7.01
2023-04-02T18:11:38.985Z,7.08
2023-04-02T18:14:34.520Z,7.02
2023-04-02T18:17:10.477Z,6.96
2023-04-02T18:19:49.926Z,6.84
2023-04-02T18:22:38.476Z,6.78
2023-04-02T18:25:17.853Z,6.59
2023-04-02T18:28:05.860Z,6.55
2023-04-02T18:30:35.680Z,6.60
2023-04-02T18:33:19.888Z,6.57
2023-04-02T18:36:16.063Z,6.53
2023-04-02T18:39:03.882Z,6.65
2023-04-02T18:41:35.097Z,6.65
2023-04-02T18:44:31.579Z,6.50
2023-04-02T18:47:06.618Z,6.43
2023-04-02T18:49:43.638Z,6.46
2023-04-02T18:52:15.780Z,6.36
2023-04-02T18:54:54.009Z,6.29
2023-04-02T18:57:30.660Z,6.20
2023-04-02T19:00:16.160Z,6.12
2023-04-02T19:02:49.580Z,6.14
2023-04-02T19:05:28.095Z,6.18
2023-04-02T19:08:18.730Z,6.17
2023-04-02T19:10:48.504Z,6.08
2023-04-02T19:13:19.605Z,6.03
2023-04-02T19:16:04.963Z,6.11
2023-04-02T19:19:09.345Z,6.02
2023-04-02T19:21:51.692Z,5.89
2023-04-02T19:24:49.146Z,5.90
2023-04-02T19:27:19.865Z,6.04
2023-04-02T19:29:57.904Z,5.82
2023-04-02T19:32:47.550Z,5.91
2023-04-02T19:35:22.068Z,5.91
2023-04-02T19:38:13.287Z,5.90
2023-04-02T19:40:42.054Z,5.91
2023-04-02T19:43:10.893Z,5.83
2023-04-02T19:45:42.262Z,5.88
2023-04-02T19:48:17.512Z,5.85
2023-04-02T19:50:45.240Z,5.89
2023-04-02T19:53:12.327Z,5.78
2023-04-02T19:55:40.288Z,5.74
2023-04-02T19:58:18.900Z,5.84
2023-04-02T20:00:46.294Z,5.72
2023-04-02T20:03:13.131Z,5.74
2023-04-02T20:05:39.908Z,5.71
2023-04-02T20:08:06.678Z,5.70
2023-04-02T20:10:33.458Z,5.71
2023-04-02T20:13:00.175Z,5.77
2023-04-02T20:15:27.970Z,5.62
2023-04-02T20:17:54.720Z,5.64
2023-04-02T20:20:21.453Z,5.33
2023-04-02T20:22:48.645Z,5.29
2023-04-02T20:25:16.220Z,5.34
2023-04-02T20:27:43.124Z,5.35
2023-04-02T20:30:10.032Z,5.33
2023-04-02T20:32:38.116Z,5.20
2023-04-02T20:35:06.110Z,5.28
2023-04-02T20:37:33.102Z,5.25
2023-04-02T20:40:00.081Z,5.14
2023-04-02T20:42:26.950Z,5.19
2023-04-02T20:44:53.792Z,5.12
2023-04-02T20:47:20.785Z,5.23
2023-04-02T20:49:47.436Z,5.02
2023-04-02T20:52:14.153Z,4.99
2023-04-02T20:54:40.879Z,4.89
2023-04-02T20:57:07.828Z,4.89
2023-04-02T20:59:34.644Z,4.90
2023-04-02T21:02:01.389Z,4.90
2023-04-02T21:04:28.653Z,4.95
2023-04-02T21:06:57.120Z,4.85
2023-04-02T21:09:24.207Z,4.80
2023-04-02T21:11:50.892Z,4.71
2023-04-02T21:14:18.149Z,4.76
2023-04-02T21:16:45.021Z,4.82
2023-04-02T21:19:11.779Z,4.79
2023-04-02T21:21:39.441Z,4.74
2023-04-02T21:24:07.899Z,4.59
2023-04-02T21:26:37.145Z,4.60
2023-04-02T21:29:04.270Z,4.58
2023-04-02T21:31:37.584Z,4.55
2023-04-02T21:34:05.321Z,4.65
2023-04-02T21:36:38.155Z,4.67
2023-04-02T21:39:10.772Z,4.64
2023-04-02T21:41:39.308Z,4.65
2023-04-02T21:44:08.445Z,4.62
2023-04-02T21:46:38.555Z,4.63
2023-04-02T21:49:08.130Z,4.61
2023-04-02T21:51:36.447Z,4.55
2023-04-02T21:54:03.501Z,4.46
2023-04-02T21:56:32.255Z,4.47
2023-04-02T21:59:01.838Z,4.50
2023-04-02T22:01:31.681Z,4.40
2023-04-02T22:04:00.480Z,4.35
2023-04-02T22:06:29.370Z,4.31
2023-04-02T22:08:58.834Z,4.25
2023-04-02T22:11:28.661Z,4.26
2023-04-02T22:13:55.628Z,4.18
2023-04-02T22:16:24.866Z,4.16
2023-04-02T22:18:53.515Z,4.24
2023-04-02T22:21:20.571Z,4.16
2023-04-02T22:23:47.758Z,4.13
2023-04-02T22:26:15.985Z,4.12
2023-04-02T22:28:42.839Z,3.96
2023-04-02T22:31:15.000Z,3.93
2023-04-02T22:33:42.265Z,3.99
2023-04-02T22:36:09.357Z,3.94
2023-04-02T22:38:36.509Z,3.97
2023-04-02T22:41:09.334Z,4.02
2023-04-02T22:43:36.706Z,3.95
2023-04-02T22:46:07.959Z,4.05
2023-04-02T22:48:36.075Z,3.94
2023-04-02T22:51:03.262Z,3.80
2023-04-02T22:53:30.029Z,3.88
2023-04-02T22:56:05.564Z,3.97
2023-04-02T22:58:32.415Z,3.96
2023-04-02T23:01:23.257Z,3.84
2023-04-02T23:03:49.834Z,3.83
2023-04-02T23:06:18.324Z,3.86
2023-04-02T23:08:45.791Z,3.85
2023-04-02T23:11:22.328Z,3.71
2023-04-02T23:13:50.923Z,3.83
2023-04-02T23:16:18.147Z,3.87
2023-04-02T23:18:48.085Z,3.81
2023-04-02T23:21:15.761Z,3.76
2023-04-02T23:23:42.517Z,3.80
2023-04-02T23:26:18.223Z,3.88
2023-04-02T23:28:45.249Z,3.97
2023-04-02T23:31:17.008Z,4.05
2023-04-02T23:33:44.376Z,4.03
2023-04-02T23:36:15.319Z,4.07
2023-04-02T23:38:42.047Z,4.04
2023-04-02T23:41:15.050Z,4.06
2023-04-02T23:43:42.076Z,4.04
2023-04-02T23:46:08.984Z,4.01
2023-04-02T23:48:35.866Z,3.88
2023-04-02T23:51:02.737Z,3.88
2023-04-02T23:53:29.425Z,3.88
2023-04-02T23:55:56.291Z,3.81
2023-04-02T23:58:23.103Z,3.72
